Crow Agency, Montana
Current Conditions -  °F | °C
As of 9:53 PM on Sunday 19 Oct 2014 (Local Time) from KBIL Reporting Station
Clear Clear  
Wind Chill: 61°   Ceiling: Unl
Heat Index: 61°   Visibility: 10mi
Dew Point: 35°   Wind: 5mph
Humidity: 38%   Direction: 170°S
Pressure: 29.97"   Gusts: NA
Location:  45.6°N, 107.46°W
Report Text: KBIL 200353Z 17004KT 10SM CLR 16/02 A2997 RMK AO2 SLP140 T01610017
Loading
Personal Weather Stations






























Interactive Weather Map
Tropical Storm Tracking
New forecast layout! Learn more

10-Day Weather Forecast

Advertisements
Track Severe Weather on mobile